sensor_id;sensor_type;location;lat;lon;timestamp;temperature;humidity
80228;DHT22;69539;42.138;24.742;2024-02-21T00:01:56;14.00;42.50
80228;DHT22;69539;42.138;24.742;2024-02-21T00:04:21;14.00;42.70
80228;DHT22;69539;42.138;24.742;2024-02-21T00:06:47;14.00;42.80
80228;DHT22;69539;42.138;24.742;2024-02-21T00:09:13;14.00;42.90
80228;DHT22;69539;42.138;24.742;2024-02-21T00:11:38;14.00;43.10
80228;DHT22;69539;42.138;24.742;2024-02-21T00:14:04;14.00;43.10
80228;DHT22;69539;42.138;24.742;2024-02-21T00:16:29;14.00;43.30
80228;DHT22;69539;42.138;24.742;2024-02-21T00:18:55;14.00;43.30
80228;DHT22;69539;42.138;24.742;2024-02-21T00:21:21;14.00;43.40
80228;DHT22;69539;42.138;24.742;2024-02-21T00:23:47;14.00;43.50
80228;DHT22;69539;42.138;24.742;2024-02-21T00:26:14;14.00;43.50
80228;DHT22;69539;42.138;24.742;2024-02-21T00:28:39;14.00;43.70
80228;DHT22;69539;42.138;24.742;2024-02-21T00:31:05;14.00;43.60
80228;DHT22;69539;42.138;24.742;2024-02-21T00:33:31;14.00;43.70
80228;DHT22;69539;42.138;24.742;2024-02-21T00:35:56;14.00;43.80
80228;DHT22;69539;42.138;24.742;2024-02-21T00:38:22;14.00;43.90
80228;DHT22;69539;42.138;24.742;2024-02-21T00:40:47;14.00;43.90
80228;DHT22;69539;42.138;24.742;2024-02-21T00:43:13;14.00;45.00
80228;DHT22;69539;42.138;24.742;2024-02-21T00:45:39;14.10;44.00
80228;DHT22;69539;42.138;24.742;2024-02-21T00:48:05;14.10;44.00
80228;DHT22;69539;42.138;24.742;2024-02-21T00:50:30;14.00;43.80
80228;DHT22;69539;42.138;24.742;2024-02-21T00:52:57;14.00;43.70
80228;DHT22;69539;42.138;24.742;2024-02-21T00:55:23;14.00;43.70
80228;DHT22;69539;42.138;24.742;2024-02-21T00:57:48;14.10;43.60
80228;DHT22;69539;42.138;24.742;2024-02-21T01:00:14;14.10;43.50
80228;DHT22;69539;42.138;24.742;2024-02-21T01:02:40;14.10;43.30
80228;DHT22;69539;42.138;24.742;2024-02-21T01:05:06;14.10;43.10
80228;DHT22;69539;42.138;24.742;2024-02-21T01:07:32;14.10;43.00
80228;DHT22;69539;42.138;24.742;2024-02-21T01:09:57;14.10;43.00
80228;DHT22;69539;42.138;24.742;2024-02-21T01:12:23;14.10;43.00
80228;DHT22;69539;42.138;24.742;2024-02-21T01:14:49;14.10;43.00
80228;DHT22;69539;42.138;24.742;2024-02-21T01:17:15;14.10;43.00
80228;DHT22;69539;42.138;24.742;2024-02-21T01:19:41;14.00;42.90
80228;DHT22;69539;42.138;24.742;2024-02-21T01:22:06;14.10;43.00
80228;DHT22;69539;42.138;24.742;2024-02-21T01:24:32;14.00;43.00
80228;DHT22;69539;42.138;24.742;2024-02-21T01:26:58;14.10;43.00
80228;DHT22;69539;42.138;24.742;2024-02-21T01:29:23;14.00;42.90
80228;DHT22;69539;42.138;24.742;2024-02-21T01:31:49;14.00;42.70
80228;DHT22;69539;42.138;24.742;2024-02-21T01:34:14;14.00;42.60
80228;DHT22;69539;42.138;24.742;2024-02-21T01:36:40;14.00;42.40
80228;DHT22;69539;42.138;24.742;2024-02-21T01:39:07;14.00;42.30
80228;DHT22;69539;42.138;24.742;2024-02-21T01:41:33;14.00;43.20
80228;DHT22;69539;42.138;24.742;2024-02-21T01:43:58;14.00;41.90
80228;DHT22;69539;42.138;24.742;2024-02-21T01:46:24;14.10;41.90
80228;DHT22;69539;42.138;24.742;2024-02-21T01:48:56;14.00;41.70
80228;DHT22;69539;42.138;24.742;2024-02-21T01:51:22;14.00;41.60
80228;DHT22;69539;42.138;24.742;2024-02-21T01:53:49;14.10;41.50
80228;DHT22;69539;42.138;24.742;2024-02-21T01:56:16;14.10;41.50
80228;DHT22;69539;42.138;24.742;2024-02-21T01:58:42;14.10;41.40
80228;DHT22;69539;42.138;24.742;2024-02-21T02:01:10;14.10;41.30
80228;DHT22;69539;42.138;24.742;2024-02-21T02:03:36;14.00;41.20
80228;DHT22;69539;42.138;24.742;2024-02-21T02:06:03;14.00;41.10
80228;DHT22;69539;42.138;24.742;2024-02-21T02:08:31;14.00;41.00
80228;DHT22;69539;42.138;24.742;2024-02-21T02:10:57;14.00;40.90
80228;DHT22;69539;42.138;24.742;2024-02-21T02:13:23;14.00;40.90
80228;DHT22;69539;42.138;24.742;2024-02-21T02:15:49;14.00;40.90
80228;DHT22;69539;42.138;24.742;2024-02-21T02:18:16;14.00;41.00
80228;DHT22;69539;42.138;24.742;2024-02-21T02:20:44;14.00;41.10
80228;DHT22;69539;42.138;24.742;2024-02-21T02:23:11;14.00;41.00
80228;DHT22;69539;42.138;24.742;2024-02-21T02:25:38;14.00;41.00
80228;DHT22;69539;42.138;24.742;2024-02-21T02:28:07;14.00;41.10
80228;DHT22;69539;42.138;24.742;2024-02-21T02:30:34;14.00;41.20
80228;DHT22;69539;42.138;24.742;2024-02-21T02:33:04;14.00;41.30
80228;DHT22;69539;42.138;24.742;2024-02-21T02:35:30;14.00;41.40
80228;DHT22;69539;42.138;24.742;2024-02-21T02:37:56;13.90;41.60
80228;DHT22;69539;42.138;24.742;2024-02-21T02:40:22;13.90;41.80
80228;DHT22;69539;42.138;24.742;2024-02-21T02:42:49;14.00;42.10
80228;DHT22;69539;42.138;24.742;2024-02-21T02:45:18;13.90;42.20
80228;DHT22;69539;42.138;24.742;2024-02-21T02:47:47;13.90;42.50
80228;DHT22;69539;42.138;24.742;2024-02-21T02:50:13;13.90;42.70
80228;DHT22;69539;42.138;24.742;2024-02-21T02:52:38;13.90;42.70
80228;DHT22;69539;42.138;24.742;2024-02-21T02:55:05;13.90;42.80
80228;DHT22;69539;42.138;24.742;2024-02-21T02:57:31;13.90;42.80
80228;DHT22;69539;42.138;24.742;2024-02-21T02:59:57;13.90;43.00
80228;DHT22;69539;42.138;24.742;2024-02-21T03:02:23;13.90;43.00
80228;DHT22;69539;42.138;24.742;2024-02-21T03:04:49;13.90;43.10
80228;DHT22;69539;42.138;24.742;2024-02-21T03:07:15;13.90;43.20
80228;DHT22;69539;42.138;24.742;2024-02-21T03:09:41;13.90;43.40
80228;DHT22;69539;42.138;24.742;2024-02-21T03:12:10;13.90;43.50
80228;DHT22;69539;42.138;24.742;2024-02-21T03:14:36;13.90;43.50
80228;DHT22;69539;42.138;24.742;2024-02-21T03:17:03;13.90;43.60
80228;DHT22;69539;42.138;24.742;2024-02-21T03:19:29;13.90;43.80
80228;DHT22;69539;42.138;24.742;2024-02-21T03:21:55;13.90;43.90
80228;DHT22;69539;42.138;24.742;2024-02-21T03:24:21;13.90;44.00
80228;DHT22;69539;42.138;24.742;2024-02-21T03:26:47;13.90;44.00
80228;DHT22;69539;42.138;24.742;2024-02-21T03:29:15;13.90;44.10
80228;DHT22;69539;42.138;24.742;2024-02-21T03:31:41;13.90;44.10
80228;DHT22;69539;42.138;24.742;2024-02-21T03:34:06;13.90;44.10
80228;DHT22;69539;42.138;24.742;2024-02-21T03:36:32;13.90;44.10
80228;DHT22;69539;42.138;24.742;2024-02-21T03:38:58;13.90;44.10
80228;DHT22;69539;42.138;24.742;2024-02-21T03:41:23;13.90;44.10
80228;DHT22;69539;42.138;24.742;2024-02-21T03:43:49;13.90;44.10
80228;DHT22;69539;42.138;24.742;2024-02-21T03:46:15;13.90;44.00
80228;DHT22;69539;42.138;24.742;2024-02-21T03:48:41;13.90;44.00
80228;DHT22;69539;42.138;24.742;2024-02-21T03:51:07;13.90;44.00
80228;DHT22;69539;42.138;24.742;2024-02-21T03:53:33;13.90;43.90
80228;DHT22;69539;42.138;24.742;2024-02-21T03:56:01;13.90;43.90
80228;DHT22;69539;42.138;24.742;2024-02-21T03:58:32;13.90;43.80
80228;DHT22;69539;42.138;24.742;2024-02-21T04:01:00;13.90;43.80
80228;DHT22;69539;42.138;24.742;2024-02-21T04:03:26;13.90;43.70
80228;DHT22;69539;42.138;24.742;2024-02-21T04:05:51;13.90;43.80
80228;DHT22;69539;42.138;24.742;2024-02-21T04:08:17;14.00;43.70
80228;DHT22;69539;42.138;24.742;2024-02-21T04:10:43;13.90;43.60
80228;DHT22;69539;42.138;24.742;2024-02-21T04:13:09;14.00;43.60
80228;DHT22;69539;42.138;24.742;2024-02-21T04:15:34;14.00;43.60
80228;DHT22;69539;42.138;24.742;2024-02-21T04:18:00;14.00;43.50
80228;DHT22;69539;42.138;24.742;2024-02-21T04:20:26;14.00;43.40
80228;DHT22;69539;42.138;24.742;2024-02-21T04:22:52;14.00;43.20
80228;DHT22;69539;42.138;24.742;2024-02-21T04:25:18;14.00;43.10
80228;DHT22;69539;42.138;24.742;2024-02-21T04:27:44;14.00;43.00
80228;DHT22;69539;42.138;24.742;2024-02-21T04:30:10;14.00;42.80
80228;DHT22;69539;42.138;24.742;2024-02-21T04:32:36;14.00;42.60
80228;DHT22;69539;42.138;24.742;2024-02-21T04:35:01;14.00;42.40
80228;DHT22;69539;42.138;24.742;2024-02-21T04:37:27;13.90;42.30
80228;DHT22;69539;42.138;24.742;2024-02-21T04:39:53;14.00;42.20
80228;DHT22;69539;42.138;24.742;2024-02-21T04:42:19;14.00;43.20
80228;DHT22;69539;42.138;24.742;2024-02-21T04:44:44;14.00;42.10
80228;DHT22;69539;42.138;24.742;2024-02-21T04:47:10;14.00;42.20
80228;DHT22;69539;42.138;24.742;2024-02-21T04:49:36;14.00;42.30
80228;DHT22;69539;42.138;24.742;2024-02-21T04:52:02;14.00;42.20
80228;DHT22;69539;42.138;24.742;2024-02-21T04:54:27;13.90;42.20
80228;DHT22;69539;42.138;24.742;2024-02-21T04:56:53;13.90;42.30
80228;DHT22;69539;42.138;24.742;2024-02-21T04:59:18;13.90;42.40
80228;DHT22;69539;42.138;24.742;2024-02-21T05:01:44;13.90;42.50
80228;DHT22;69539;42.138;24.742;2024-02-21T05:04:10;13.90;42.60
80228;DHT22;69539;42.138;24.742;2024-02-21T05:06:42;13.90;42.70
80228;DHT22;69539;42.138;24.742;2024-02-21T05:09:08;13.90;42.80
80228;DHT22;69539;42.138;24.742;2024-02-21T05:11:35;13.90;42.90
80228;DHT22;69539;42.138;24.742;2024-02-21T05:14:00;13.90;43.00
80228;DHT22;69539;42.138;24.742;2024-02-21T05:16:26;13.80;43.00
80228;DHT22;69539;42.138;24.742;2024-02-21T05:18:52;13.80;43.10
80228;DHT22;69539;42.138;24.742;2024-02-21T05:21:17;13.80;43.10
80228;DHT22;69539;42.138;24.742;2024-02-21T05:23:43;13.80;43.70
80228;DHT22;69539;42.138;24.742;2024-02-21T05:26:09;13.80;43.90
80228;DHT22;69539;42.138;24.742;2024-02-21T05:28:34;13.80;44.20
80228;DHT22;69539;42.138;24.742;2024-02-21T05:31:00;13.80;44.30
80228;DHT22;69539;42.138;24.742;2024-02-21T05:33:26;13.80;44.00
80228;DHT22;69539;42.138;24.742;2024-02-21T05:35:52;13.90;43.80
80228;DHT22;69539;42.138;24.742;2024-02-21T05:38:18;13.80;43.50
80228;DHT22;69539;42.138;24.742;2024-02-21T05:40:44;13.90;43.50
80228;DHT22;69539;42.138;24.742;2024-02-21T05:43:10;13.80;43.20
80228;DHT22;69539;42.138;24.742;2024-02-21T05:45:36;13.80;43.20
80228;DHT22;69539;42.138;24.742;2024-02-21T05:48:03;13.80;43.20
80228;DHT22;69539;42.138;24.742;2024-02-21T05:50:29;13.80;43.20
80228;DHT22;69539;42.138;24.742;2024-02-21T05:52:55;13.80;43.20
80228;DHT22;69539;42.138;24.742;2024-02-21T05:55:23;13.80;43.20
80228;DHT22;69539;42.138;24.742;2024-02-21T05:57:49;13.80;43.20
80228;DHT22;69539;42.138;24.742;2024-02-21T06:00:15;13.90;43.20
80228;DHT22;69539;42.138;24.742;2024-02-21T06:02:41;13.90;43.70
80228;DHT22;69539;42.138;24.742;2024-02-21T06:05:07;13.90;44.00
80228;DHT22;69539;42.138;24.742;2024-02-21T06:07:34;13.90;43.90
80228;DHT22;69539;42.138;24.742;2024-02-21T06:10:03;13.90;43.60
80228;DHT22;69539;42.138;24.742;2024-02-21T06:12:29;14.00;43.70
80228;DHT22;69539;42.138;24.742;2024-02-21T06:14:55;14.00;43.60
80228;DHT22;69539;42.138;24.742;2024-02-21T06:17:20;14.00;43.40
80228;DHT22;69539;42.138;24.742;2024-02-21T06:19:46;14.10;43.10
80228;DHT22;69539;42.138;24.742;2024-02-21T06:22:12;14.10;42.80
80228;DHT22;69539;42.138;24.742;2024-02-21T06:24:38;14.10;42.60
80228;DHT22;69539;42.138;24.742;2024-02-21T06:27:04;14.10;42.40
80228;DHT22;69539;42.138;24.742;2024-02-21T06:29:33;14.10;42.30
80228;DHT22;69539;42.138;24.742;2024-02-21T06:31:59;14.20;42.10
80228;DHT22;69539;42.138;24.742;2024-02-21T06:34:25;14.20;42.20
80228;DHT22;69539;42.138;24.742;2024-02-21T06:36:51;14.20;42.20
80228;DHT22;69539;42.138;24.742;2024-02-21T06:39:16;14.20;42.10
80228;DHT22;69539;42.138;24.742;2024-02-21T06:41:42;14.30;42.20
80228;DHT22;69539;42.138;24.742;2024-02-21T06:44:08;14.30;41.90
80228;DHT22;69539;42.138;24.742;2024-02-21T06:46:34;14.30;41.90
80228;DHT22;69539;42.138;24.742;2024-02-21T06:49:01;14.40;42.30
80228;DHT22;69539;42.138;24.742;2024-02-21T06:51:27;14.50;42.20
80228;DHT22;69539;42.138;24.742;2024-02-21T06:53:53;14.50;41.70
80228;DHT22;69539;42.138;24.742;2024-02-21T06:56:19;14.50;41.50
80228;DHT22;69539;42.138;24.742;2024-02-21T06:58:45;14.60;41.40
80228;DHT22;69539;42.138;24.742;2024-02-21T07:01:11;14.60;41.30
80228;DHT22;69539;42.138;24.742;2024-02-21T07:03:37;14.70;41.30
80228;DHT22;69539;42.138;24.742;2024-02-21T07:06:03;14.80;41.10
80228;DHT22;69539;42.138;24.742;2024-02-21T07:08:29;14.90;40.80
80228;DHT22;69539;42.138;24.742;2024-02-21T07:10:54;15.00;41.10
80228;DHT22;69539;42.138;24.742;2024-02-21T07:13:20;15.20;42.50
80228;DHT22;69539;42.138;24.742;2024-02-21T07:15:48;15.40;42.10
80228;DHT22;69539;42.138;24.742;2024-02-21T07:18:14;15.60;40.90
80228;DHT22;69539;42.138;24.742;2024-02-21T07:20:39;15.80;40.10
80228;DHT22;69539;42.138;24.742;2024-02-21T07:23:07;16.00;39.20
80228;DHT22;69539;42.138;24.742;2024-02-21T07:25:33;16.30;38.40
80228;DHT22;69539;42.138;24.742;2024-02-21T07:27:58;16.60;37.90
80228;DHT22;69539;42.138;24.742;2024-02-21T07:30:24;16.80;36.90
80228;DHT22;69539;42.138;24.742;2024-02-21T07:32:50;17.10;36.40
80228;DHT22;69539;42.138;24.742;2024-02-21T07:35:17;17.40;35.70
80228;DHT22;69539;42.138;24.742;2024-02-21T07:37:43;17.70;36.60
80228;DHT22;69539;42.138;24.742;2024-02-21T07:40:15;17.90;35.80
80228;DHT22;69539;42.138;24.742;2024-02-21T07:42:41;18.00;35.30
80228;DHT22;69539;42.138;24.742;2024-02-21T07:45:10;18.10;34.70
80228;DHT22;69539;42.138;24.742;2024-02-21T07:47:36;18.30;34.40
80228;DHT22;69539;42.138;24.742;2024-02-21T07:50:03;18.50;34.00
80228;DHT22;69539;42.138;24.742;2024-02-21T07:52:29;18.70;33.40
80228;DHT22;69539;42.138;24.742;2024-02-21T07:54:54;19.10;32.80
80228;DHT22;69539;42.138;24.742;2024-02-21T07:57:20;19.20;33.40
80228;DHT22;69539;42.138;24.742;2024-02-21T07:59:46;19.20;32.00
80228;DHT22;69539;42.138;24.742;2024-02-21T08:02:15;19.20;31.80
80228;DHT22;69539;42.138;24.742;2024-02-21T08:04:41;19.20;31.80
80228;DHT22;69539;42.138;24.742;2024-02-21T08:07:07;19.30;31.80
80228;DHT22;69539;42.138;24.742;2024-02-21T08:09:32;19.30;31.50
80228;DHT22;69539;42.138;24.742;2024-02-21T08:11:58;19.40;31.50
80228;DHT22;69539;42.138;24.742;2024-02-21T08:14:24;19.40;31.60
80228;DHT22;69539;42.138;24.742;2024-02-21T08:16:52;19.40;31.50
80228;DHT22;69539;42.138;24.742;2024-02-21T08:19:19;19.40;31.60
80228;DHT22;69539;42.138;24.742;2024-02-21T08:21:45;19.30;31.80
80228;DHT22;69539;42.138;24.742;2024-02-21T08:24:16;19.30;31.60
80228;DHT22;69539;42.138;24.742;2024-02-21T08:26:43;19.40;31.60
80228;DHT22;69539;42.138;24.742;2024-02-21T08:29:10;19.30;31.50
80228;DHT22;69539;42.138;24.742;2024-02-21T08:31:36;19.20;31.60
80228;DHT22;69539;42.138;24.742;2024-02-21T08:34:01;19.10;31.60
80228;DHT22;69539;42.138;24.742;2024-02-21T08:36:34;19.00;31.50
80228;DHT22;69539;42.138;24.742;2024-02-21T08:39:01;19.00;31.50
80228;DHT22;69539;42.138;24.742;2024-02-21T08:41:27;18.90;31.30
80228;DHT22;69539;42.138;24.742;2024-02-21T08:43:53;18.90;31.30
80228;DHT22;69539;42.138;24.742;2024-02-21T08:46:23;19.00;31.30
80228;DHT22;69539;42.138;24.742;2024-02-21T08:48:50;19.00;31.10
80228;DHT22;69539;42.138;24.742;2024-02-21T08:51:16;19.00;30.90
80228;DHT22;69539;42.138;24.742;2024-02-21T08:53:44;19.10;30.80
80228;DHT22;69539;42.138;24.742;2024-02-21T08:56:09;19.10;30.90
80228;DHT22;69539;42.138;24.742;2024-02-21T08:58:36;19.20;30.90
80228;DHT22;69539;42.138;24.742;2024-02-21T09:01:03;19.20;30.80
80228;DHT22;69539;42.138;24.742;2024-02-21T09:03:31;19.20;30.80
80228;DHT22;69539;42.138;24.742;2024-02-21T09:05:57;19.20;31.00
80228;DHT22;69539;42.138;24.742;2024-02-21T09:08:23;19.20;31.10
80228;DHT22;69539;42.138;24.742;2024-02-21T09:10:50;19.20;31.20
80228;DHT22;69539;42.138;24.742;2024-02-21T09:13:15;19.30;31.10
80228;DHT22;69539;42.138;24.742;2024-02-21T09:15:42;19.70;30.80
80228;DHT22;69539;42.138;24.742;2024-02-21T09:18:08;20.40;30.70
80228;DHT22;69539;42.138;24.742;2024-02-21T09:20:34;21.10;29.30
80228;DHT22;69539;42.138;24.742;2024-02-21T09:22:59;21.90;35.10
80228;DHT22;69539;42.138;24.742;2024-02-21T09:25:25;22.70;34.20
80228;DHT22;69539;42.138;24.742;2024-02-21T09:27:51;23.60;30.20
80228;DHT22;69539;42.138;24.742;2024-02-21T09:30:19;24.40;27.60
80228;DHT22;69539;42.138;24.742;2024-02-21T09:32:45;25.00;26.40
80228;DHT22;69539;42.138;24.742;2024-02-21T09:35:11;25.80;25.80
80228;DHT22;69539;42.138;24.742;2024-02-21T09:37:41;26.50;26.60
80228;DHT22;69539;42.138;24.742;2024-02-21T09:40:07;27.20;27.30
80228;DHT22;69539;42.138;24.742;2024-02-21T09:42:41;27.90;27.40
80228;DHT22;69539;42.138;24.742;2024-02-21T09:45:20;28.50;24.40
80228;DHT22;69539;42.138;24.742;2024-02-21T09:50:53;29.30;21.00
80228;DHT22;69539;42.138;24.742;2024-02-21T09:53:20;29.60;20.80
80228;DHT22;69539;42.138;24.742;2024-02-21T09:55:48;29.90;20.70
80228;DHT22;69539;42.138;24.742;2024-02-21T09:58:14;30.10;19.60
80228;DHT22;69539;42.138;24.742;2024-02-21T10:00:40;30.40;19.00
80228;DHT22;69539;42.138;24.742;2024-02-21T10:03:06;30.50;18.40
80228;DHT22;69539;42.138;24.742;2024-02-21T10:05:35;30.50;18.50
80228;DHT22;69539;42.138;24.742;2024-02-21T10:08:02;30.70;18.50
80228;DHT22;69539;42.138;24.742;2024-02-21T10:10:27;30.80;18.50
80228;DHT22;69539;42.138;24.742;2024-02-21T10:12:55;31.00;18.40
80228;DHT22;69539;42.138;24.742;2024-02-21T10:15:22;31.00;18.10
80228;DHT22;69539;42.138;24.742;2024-02-21T10:17:58;31.10;17.70
80228;DHT22;69539;42.138;24.742;2024-02-21T10:20:24;31.10;18.10
80228;DHT22;69539;42.138;24.742;2024-02-21T10:23:03;31.10;17.80
80228;DHT22;69539;42.138;24.742;2024-02-21T10:25:34;31.20;17.70
80228;DHT22;69539;42.138;24.742;2024-02-21T10:28:01;31.20;18.30
80228;DHT22;69539;42.138;24.742;2024-02-21T10:30:27;31.20;18.30
80228;DHT22;69539;42.138;24.742;2024-02-21T10:32:56;31.20;18.30
80228;DHT22;69539;42.138;24.742;2024-02-21T10:35:32;31.20;17.20
80228;DHT22;69539;42.138;24.742;2024-02-21T10:37:59;31.10;16.90
80228;DHT22;69539;42.138;24.742;2024-02-21T10:40:28;31.00;17.70
80228;DHT22;69539;42.138;24.742;2024-02-21T10:42:59;31.00;17.40
80228;DHT22;69539;42.138;24.742;2024-02-21T10:45:35;30.90;17.30
80228;DHT22;69539;42.138;24.742;2024-02-21T10:53:40;30.60;17.60
80228;DHT22;69539;42.138;24.742;2024-02-21T10:56:33;30.50;18.10
80228;DHT22;69539;42.138;24.742;2024-02-21T10:59:05;30.40;19.30
80228;DHT22;69539;42.138;24.742;2024-02-21T11:01:31;30.30;19.40
80228;DHT22;69539;42.138;24.742;2024-02-21T11:04:01;30.10;19.20
80228;DHT22;69539;42.138;24.742;2024-02-21T11:06:28;29.90;19.50
80228;DHT22;69539;42.138;24.742;2024-02-21T11:11:28;29.60;19.60
80228;DHT22;69539;42.138;24.742;2024-02-21T11:16:40;29.30;19.80
80228;DHT22;69539;42.138;24.742;2024-02-21T11:21:36;29.00;20.00
80228;DHT22;69539;42.138;24.742;2024-02-21T11:24:05;28.90;20.10
80228;DHT22;69539;42.138;24.742;2024-02-21T11:26:31;28.80;19.70
80228;DHT22;69539;42.138;24.742;2024-02-21T11:31:23;28.40;19.20
80228;DHT22;69539;42.138;24.742;2024-02-21T11:33:49;28.20;19.60
80228;DHT22;69539;42.138;24.742;2024-02-21T11:36:27;28.00;19.50
80228;DHT22;69539;42.138;24.742;2024-02-21T11:38:53;27.60;19.60
80228;DHT22;69539;42.138;24.742;2024-02-21T11:41:19;27.30;19.90
80228;DHT22;69539;42.138;24.742;2024-02-21T11:43:49;27.10;20.30
80228;DHT22;69539;42.138;24.742;2024-02-21T11:46:16;26.90;20.40
80228;DHT22;69539;42.138;24.742;2024-02-21T11:48:42;26.60;20.50
80228;DHT22;69539;42.138;24.742;2024-02-21T11:51:10;26.40;20.50
80228;DHT22;69539;42.138;24.742;2024-02-21T11:53:36;26.10;20.80
80228;DHT22;69539;42.138;24.742;2024-02-21T11:56:02;25.90;21.10
80228;DHT22;69539;42.138;24.742;2024-02-21T11:58:28;25.70;21.00
80228;DHT22;69539;42.138;24.742;2024-02-21T12:00:55;25.70;21.10
80228;DHT22;69539;42.138;24.742;2024-02-21T12:03:20;25.60;21.10
80228;DHT22;69539;42.138;24.742;2024-02-21T12:05:46;25.50;21.10
80228;DHT22;69539;42.138;24.742;2024-02-21T12:08:12;25.40;21.20
80228;DHT22;69539;42.138;24.742;2024-02-21T12:10:38;25.30;21.20
80228;DHT22;69539;42.138;24.742;2024-02-21T12:13:10;25.20;21.40
80228;DHT22;69539;42.138;24.742;2024-02-21T12:15:39;25.20;21.50
80228;DHT22;69539;42.138;24.742;2024-02-21T12:18:06;25.10;21.40
80228;DHT22;69539;42.138;24.742;2024-02-21T12:20:31;25.00;21.50
80228;DHT22;69539;42.138;24.742;2024-02-21T12:23:01;24.90;21.70
80228;DHT22;69539;42.138;24.742;2024-02-21T12:25:28;24.80;21.70
80228;DHT22;69539;42.138;24.742;2024-02-21T12:27:54;24.80;21.70
80228;DHT22;69539;42.138;24.742;2024-02-21T12:30:21;24.70;21.90
80228;DHT22;69539;42.138;24.742;2024-02-21T12:32:47;24.60;21.90
80228;DHT22;69539;42.138;24.742;2024-02-21T12:35:14;24.60;22.00
80228;DHT22;69539;42.138;24.742;2024-02-21T12:37:39;24.40;21.80
80228;DHT22;69539;42.138;24.742;2024-02-21T12:40:06;24.40;21.70
80228;DHT22;69539;42.138;24.742;2024-02-21T12:42:33;24.20;22.10
80228;DHT22;69539;42.138;24.742;2024-02-21T12:44:59;24.10;22.20
80228;DHT22;69539;42.138;24.742;2024-02-21T12:47:25;24.00;22.30
80228;DHT22;69539;42.138;24.742;2024-02-21T12:49:52;23.90;22.30
80228;DHT22;69539;42.138;24.742;2024-02-21T12:52:18;23.80;22.50
80228;DHT22;69539;42.138;24.742;2024-02-21T12:54:44;23.70;22.30
80228;DHT22;69539;42.138;24.742;2024-02-21T12:57:10;23.60;22.10
80228;DHT22;69539;42.138;24.742;2024-02-21T12:59:36;23.50;22.00
80228;DHT22;69539;42.138;24.742;2024-02-21T13:02:01;23.40;21.80
80228;DHT22;69539;42.138;24.742;2024-02-21T13:04:27;23.30;22.10
80228;DHT22;69539;42.138;24.742;2024-02-21T13:06:53;23.20;22.40
80228;DHT22;69539;42.138;24.742;2024-02-21T13:09:20;23.10;22.00
80228;DHT22;69539;42.138;24.742;2024-02-21T13:11:47;23.00;21.70
80228;DHT22;69539;42.138;24.742;2024-02-21T13:14:13;22.90;21.40
80228;DHT22;69539;42.138;24.742;2024-02-21T13:16:39;22.80;21.70
80228;DHT22;69539;42.138;24.742;2024-02-21T13:19:08;22.70;22.00
80228;DHT22;69539;42.138;24.742;2024-02-21T13:21:34;22.60;22.00
80228;DHT22;69539;42.138;24.742;2024-02-21T13:24:01;22.60;21.80
80228;DHT22;69539;42.138;24.742;2024-02-21T13:26:26;22.50;21.90
80228;DHT22;69539;42.138;24.742;2024-02-21T13:28:53;22.50;22.30
80228;DHT22;69539;42.138;24.742;2024-02-21T13:31:18;22.40;22.00
80228;DHT22;69539;42.138;24.742;2024-02-21T13:33:44;22.30;22.00
80228;DHT22;69539;42.138;24.742;2024-02-21T13:36:10;22.30;21.90
80228;DHT22;69539;42.138;24.742;2024-02-21T13:38:36;22.20;22.20
80228;DHT22;69539;42.138;24.742;2024-02-21T13:41:05;22.20;22.20
80228;DHT22;69539;42.138;24.742;2024-02-21T13:43:30;22.10;22.20
80228;DHT22;69539;42.138;24.742;2024-02-21T13:45:57;22.10;22.10
80228;DHT22;69539;42.138;24.742;2024-02-21T13:48:28;22.10;22.30
80228;DHT22;69539;42.138;24.742;2024-02-21T13:50:54;22.00;22.50
80228;DHT22;69539;42.138;24.742;2024-02-21T13:53:20;21.90;22.60
80228;DHT22;69539;42.138;24.742;2024-02-21T13:55:46;21.90;22.60
80228;DHT22;69539;42.138;24.742;2024-02-21T13:58:12;21.80;22.40
80228;DHT22;69539;42.138;24.742;2024-02-21T14:00:38;21.80;22.40
80228;DHT22;69539;42.138;24.742;2024-02-21T14:03:04;21.80;22.10
80228;DHT22;69539;42.138;24.742;2024-02-21T14:05:30;21.70;22.10
80228;DHT22;69539;42.138;24.742;2024-02-21T14:07:56;21.70;22.20
80228;DHT22;69539;42.138;24.742;2024-02-21T14:10:22;21.60;22.00
80228;DHT22;69539;42.138;24.742;2024-02-21T14:12:48;21.60;21.60
80228;DHT22;69539;42.138;24.742;2024-02-21T14:15:14;21.50;21.70
80228;DHT22;69539;42.138;24.742;2024-02-21T14:17:40;21.50;21.60
80228;DHT22;69539;42.138;24.742;2024-02-21T14:20:08;21.40;21.60
80228;DHT22;69539;42.138;24.742;2024-02-21T14:22:34;21.30;21.50
80228;DHT22;69539;42.138;24.742;2024-02-21T14:25:03;21.20;21.50
80228;DHT22;69539;42.138;24.742;2024-02-21T14:27:31;21.20;21.70
80228;DHT22;69539;42.138;24.742;2024-02-21T14:29:56;21.10;22.00
80228;DHT22;69539;42.138;24.742;2024-02-21T14:32:22;21.00;22.40
80228;DHT22;69539;42.138;24.742;2024-02-21T14:34:48;20.90;23.50
80228;DHT22;69539;42.138;24.742;2024-02-21T14:37:15;20.80;22.90
80228;DHT22;69539;42.138;24.742;2024-02-21T14:39:41;20.70;23.10
80228;DHT22;69539;42.138;24.742;2024-02-21T14:42:06;20.70;23.20
80228;DHT22;69539;42.138;24.742;2024-02-21T14:44:35;20.60;23.20
80228;DHT22;69539;42.138;24.742;2024-02-21T14:47:01;20.50;23.20
80228;DHT22;69539;42.138;24.742;2024-02-21T14:49:26;20.40;23.30
80228;DHT22;69539;42.138;24.742;2024-02-21T14:51:54;20.40;23.50
80228;DHT22;69539;42.138;24.742;2024-02-21T14:54:20;20.30;23.70
80228;DHT22;69539;42.138;24.742;2024-02-21T14:56:45;20.20;24.00
80228;DHT22;69539;42.138;24.742;2024-02-21T14:59:12;20.20;23.80
80228;DHT22;69539;42.138;24.742;2024-02-21T15:01:38;20.10;23.80
80228;DHT22;69539;42.138;24.742;2024-02-21T15:04:04;20.00;23.90
80228;DHT22;69539;42.138;24.742;2024-02-21T15:06:30;19.90;23.90
80228;DHT22;69539;42.138;24.742;2024-02-21T15:08:57;19.90;23.90
80228;DHT22;69539;42.138;24.742;2024-02-21T15:11:23;19.90;24.00
80228;DHT22;69539;42.138;24.742;2024-02-21T15:13:49;19.80;24.10
80228;DHT22;69539;42.138;24.742;2024-02-21T15:16:14;19.70;24.20
80228;DHT22;69539;42.138;24.742;2024-02-21T15:18:41;19.60;24.20
80228;DHT22;69539;42.138;24.742;2024-02-21T15:21:07;19.60;24.30
80228;DHT22;69539;42.138;24.742;2024-02-21T15:23:36;19.50;25.10
80228;DHT22;69539;42.138;24.742;2024-02-21T15:26:01;19.50;24.30
80228;DHT22;69539;42.138;24.742;2024-02-21T15:28:27;19.40;24.60
80228;DHT22;69539;42.138;24.742;2024-02-21T15:30:54;19.40;25.20